Terminal Aerodrome Forecast
Issued by NWS Pendleton, OR

Home | Current Version | Previous Version | Text Only | Print | Product List | Glossary On
Versions: 1 2 3 4 5 6 7 8 9 10 11 12 13 14
000
FTUS46 KPDT 111700
TAFPDT
TAF
KPDT 111720Z 1118/1218 31009KT P6SM SCT200
     FM120600 15006KT P6SM SCT200
     FM120900 16007KT P6SM SCT120 BKN150
     FM121500 VRB05KT P6SM SCT150=

USA.gov is the U.S. government's official web portal to all federal, state and local government web resources and services.